Time;durP1;ratioP1;P1;durP2;ratioP2;P2;SDS_P1;SDS_P2;PMS_P1;PMS_P2;Temp;Humidity;BMP_temperature;BMP_pressure;BME280_temperature;BME280_humidity;BME280_pressure;Samples;Min_cycle;Max_cycle;Signal;HPM_P1;HPM_P2
2022/10/29 00:00:13;;;;;;;5.93;1.90;;;19.20;70.30;;;;;;2535293;54;21460;-74
2022/10/29 00:02:39;;;;;;;5.35;2.40;;;19.20;71.00;;;;;;2278804;55;21682;-74
2022/10/29 00:05:06;;;;;;;8.50;2.17;;;19.20;70.30;;;;;;2258077;55;21478;-75
2022/10/29 00:07:32;;;;;;;5.00;2.22;;;19.20;70.40;;;;;;2303328;55;20935;-74
2022/10/29 00:09:59;;;;;;;6.10;2.20;;;19.10;70.30;;;;;;2279686;55;21004;-74
2022/10/29 00:12:26;;;;;;;4.60;1.90;;;19.10;70.20;;;;;;2299048;56;20921;-75
2022/10/29 00:14:52;;;;;;;4.28;2.00;;;19.10;70.20;;;;;;2296625;56;20918;-75
2022/10/29 00:17:19;;;;;;;5.78;2.55;;;19.10;70.20;;;;;;2296380;56;21032;-75
2022/10/29 00:19:48;;;;;;;5.20;1.73;;;19.00;70.10;;;;;;2295382;56;21024;-74
2022/10/29 00:22:15;;;;;;;6.20;2.22;;;19.00;69.90;;;;;;2296095;56;20961;-76
2022/10/29 00:24:41;;;;;;;6.53;2.20;;;19.00;70.10;;;;;;2466225;54;21020;-75
2022/10/29 00:46:33;;;;;;;5.35;1.30;;;18.90;70.00;;;;;;2278997;56;21028;-75
2022/10/29 00:49:00;;;;;;;4.90;1.60;;;18.70;70.00;;;;;;2420117;54;20945;-75
2022/10/29 00:51:27;;;;;;;5.28;1.77;;;18.60;70.10;;;;;;2304663;56;20937;-74
2022/10/29 00:53:56;;;;;;;4.43;2.47;;;18.50;70.20;;;;;;2279405;55;21005;-75
2022/10/29 00:56:22;;;;;;;4.45;2.08;;;18.50;70.20;;;;;;2301357;56;21350;-75
2022/10/29 00:58:48;;;;;;;5.47;2.10;;;18.40;70.40;;;;;;2299893;56;20985;-77
2022/10/29 01:01:15;;;;;;;4.05;1.80;;;18.40;70.40;;;;;;2298154;55;21394;-76
2022/10/29 01:03:42;;;;;;;6.93;2.80;;;18.40;70.50;;;;;;2536131;53;22121;-74
2022/10/29 01:06:08;;;;;;;6.12;2.17;;;18.30;70.40;;;;;;2284670;55;21016;-75
2022/10/29 01:08:35;;;;;;;5.62;2.12;;;18.30;70.50;;;;;;2298663;56;20944;-74
2022/10/29 01:11:32;;;;;;;4.12;1.80;;;18.30;70.50;;;;;;2296800;55;22193;-74
2022/10/29 01:16:08;;;;;;;6.50;1.80;;;18.30;69.80;;;;;;2465314;53;21100;-74
2022/10/29 01:18:54;;;;;;;7.15;2.05;;;18.20;69.40;;;;;;2293494;55;20993;-75
2022/10/29 01:21:43;;;;;;;3.95;1.77;;;18.20;70.60;;;;;;2296549;56;20980;-74
2022/10/29 01:24:26;;;;;;;4.43;1.98;;;18.20;70.20;;;;;;2307979;55;21008;-74
2022/10/29 01:30:09;;;;;;;6.35;1.90;;;18.20;70.10;;;;;;2307718;55;20960;-74
2022/10/29 01:34:10;;;;;;;3.80;1.42;;;18.10;69.70;;;;;;2305190;56;21076;-74
2022/10/29 01:38:23;;;;;;;5.95;1.80;;;18.10;69.80;;;;;;2295001;55;21979;-76
2022/10/29 01:40:57;;;;;;;5.45;1.75;;;18.00;69.60;;;;;;2270466;55;1363705;-74
2022/10/29 01:43:54;;;;;;;4.18;1.92;;;18.00;70.40;;;;;;2321267;55;21480;-75
2022/10/29 01:46:46;;;;;;;4.93;1.65;;;17.90;70.40;;;;;;2307318;56;20972;-74
2022/10/29 01:49:18;;;;;;;6.28;1.90;;;17.90;70.00;;;;;;2350138;54;21045;-75
2022/10/29 01:51:45;;;;;;;4.40;1.90;;;17.90;70.60;;;;;;2308315;56;20961;-75
2022/10/29 01:54:11;;;;;;;3.58;1.70;;;17.90;70.90;;;;;;2342771;54;20957;-75
2022/10/29 01:56:37;;;;;;;5.87;1.90;;;17.80;70.90;;;;;;2304067;56;21017;-74
2022/10/29 01:59:06;;;;;;;5.45;1.90;;;17.80;70.80;;;;;;2463297;54;21651;-74
2022/10/29 02:02:08;;;;;;;3.97;1.85;;;17.80;70.80;;;;;;2300404;56;20988;-74
2022/10/29 02:06:16;;;;;;;5.03;2.30;;;17.80;70.50;;;;;;2502563;54;21009;-74
2022/10/29 02:11:21;;;;;;;4.85;1.75;;;17.80;70.00;;;;;;2301482;55;20988;-74
2022/10/29 02:13:55;;;;;;;3.10;1.40;;;17.80;70.10;;;;;;2281069;55;20973;-75
2022/10/29 02:16:22;;;;;;;5.28;1.70;;;17.80;70.70;;;;;;2532727;54;21025;-75
2022/10/29 02:18:48;;;;;;;6.90;2.03;;;17.80;71.00;;;;;;2517915;54;20930;-76
2022/10/29 02:21:16;;;;;;;4.80;1.92;;;17.80;71.20;;;;;;2520049;54;21708;-75
2022/10/29 02:23:42;;;;;;;4.95;1.92;;;17.80;71.20;;;;;;2295542;56;21021;-75
2022/10/29 02:26:09;;;;;;;4.93;1.90;;;17.70;71.20;;;;;;2295131;55;21029;-74
2022/10/29 02:28:35;;;;;;;6.50;2.20;;;17.70;71.20;;;;;;2297171;56;20957;-76
2022/10/29 02:31:02;;;;;;;6.82;2.25;;;17.70;71.20;;;;;;2306326;54;20952;-76
2022/10/29 02:33:28;;;;;;;5.82;2.10;;;17.70;71.20;;;;;;2300547;56;20925;-74
2022/10/29 02:35:54;;;;;;;6.28;2.40;;;17.70;71.30;;;;;;2300248;56;20963;-74
2022/10/29 02:38:21;;;;;;;5.78;1.95;;;17.70;71.30;;;;;;2361880;54;21056;-74
2022/10/29 02:40:47;;;;;;;6.35;2.12;;;17.70;71.30;;;;;;2299992;56;20962;-75
2022/10/29 02:43:14;;;;;;;6.93;2.80;;;17.70;71.20;;;;;;2299531;56;21457;-76
2022/10/29 02:45:40;;;;;;;6.03;2.42;;;17.70;71.20;;;;;;2353492;54;22058;-74
2022/10/29 02:48:07;;;;;;;6.20;2.60;;;17.70;71.20;;;;;;2300988;56;20956;-76
2022/10/29 02:50:33;;;;;;;5.12;2.22;;;17.70;71.20;;;;;;2299708;56;21525;-74
2022/10/29 02:53:00;;;;;;;4.72;2.25;;;17.70;71.30;;;;;;2465934;54;21858;-73
2022/10/29 02:55:26;;;;;;;6.32;2.22;;;17.70;71.20;;;;;;2538420;54;21864;-74
2022/10/29 02:57:53;;;;;;;4.43;1.60;;;17.70;71.20;;;;;;2536040;53;20996;-75
2022/10/29 03:00:20;;;;;;;4.05;2.10;;;17.70;71.20;;;;;;2277267;55;21029;-74
2022/10/29 03:02:50;;;;;;;4.72;1.98;;;17.70;71.20;;;;;;2514241;54;21009;-75
2022/10/29 03:05:19;;;;;;;4.57;1.77;;;17.70;71.00;;;;;;2298197;56;21757;-76
2022/10/29 03:07:49;;;;;;;7.15;1.92;;;17.60;71.00;;;;;;2537429;54;21068;-75
2022/10/29 03:10:16;;;;;;;6.07;2.10;;;17.60;71.00;;;;;;2286178;55;20937;-75
2022/10/29 03:12:44;;;;;;;6.80;2.03;;;17.60;71.00;;;;;;2381548;54;21032;-74
2022/10/29 03:15:10;;;;;;;4.87;1.60;;;17.60;71.10;;;;;;2292984;56;21017;-75
2022/10/29 03:17:37;;;;;;;3.70;1.60;;;17.60;71.00;;;;;;2424589;53;20993;-75
2022/10/29 03:20:04;;;;;;;3.97;1.77;;;17.50;70.90;;;;;;2278966;55;20981;-76
2022/10/29 03:22:31;;;;;;;4.35;2.03;;;17.50;70.90;;;;;;2326200;54;20956;-74
2022/10/29 03:24:57;;;;;;;4.57;1.73;;;17.50;70.90;;;;;;2499650;54;21084;-75
2022/10/29 03:27:24;;;;;;;5.12;1.70;;;17.50;70.90;;;;;;2388637;54;21080;-75
2022/10/29 03:29:52;;;;;;;6.12;2.25;;;17.50;70.90;;;;;;2297078;56;21825;-74
2022/10/29 03:32:18;;;;;;;4.80;1.98;;;17.40;70.80;;;;;;2439582;54;21028;-75
2022/10/29 03:34:45;;;;;;;6.90;2.00;;;17.40;70.90;;;;;;2295438;55;20914;-75
2022/10/29 03:37:11;;;;;;;3.90;1.62;;;17.40;71.00;;;;;;2532076;54;21045;-74
2022/10/29 03:39:38;;;;;;;4.97;1.95;;;17.40;71.00;;;;;;2293090;55;21004;-77
2022/10/29 03:42:06;;;;;;;7.37;2.00;;;17.30;70.80;;;;;;2460808;54;21014;-75
2022/10/29 03:44:35;;;;;;;7.03;2.15;;;17.30;70.80;;;;;;2280464;55;21435;-76
2022/10/29 03:47:01;;;;;;;3.75;1.87;;;17.30;70.90;;;;;;2420034;54;21491;-75
2022/10/29 03:49:27;;;;;;;4.90;1.58;;;17.30;71.00;;;;;;2296920;56;20938;-75
2022/10/29 03:51:54;;;;;;;5.78;2.28;;;17.30;71.00;;;;;;2294101;56;20945;-74
2022/10/29 03:54:21;;;;;;;6.55;2.00;;;17.20;70.80;;;;;;2296882;55;21009;-75
2022/10/29 03:56:50;;;;;;;4.28;2.00;;;17.20;70.80;;;;;;2297619;56;21485;-76
2022/10/29 03:59:17;;;;;;;4.35;1.75;;;17.20;71.00;;;;;;2292585;56;21005;-74
2022/10/29 04:01:48;;;;;;;4.50;1.67;;;17.20;71.00;;;;;;2534609;54;20965;-74
2022/10/29 04:04:14;;;;;;;4.93;1.85;;;17.20;70.90;;;;;;2288060;55;20942;-76
2022/10/29 04:06:41;;;;;;;4.90;1.95;;;17.10;70.80;;;;;;2510506;54;20937;-74
2022/10/29 04:09:10;;;;;;;3.03;1.50;;;17.10;70.90;;;;;;2300309;56;21014;-75
2022/10/29 04:11:36;;;;;;;4.37;2.12;;;17.10;70.90;;;;;;2301997;54;21379;-76
2022/10/29 04:14:02;;;;;;;4.40;1.87;;;17.10;71.00;;;;;;2301268;56;20929;-75
2022/10/29 04:16:32;;;;;;;6.90;2.35;;;17.00;70.80;;;;;;2539824;54;20961;-74
2022/10/29 04:18:58;;;;;;;7.07;2.85;;;17.00;70.90;;;;;;2301943;56;21041;-76
2022/10/29 04:21:25;;;;;;;13.38;4.15;;;17.00;70.90;;;;;;2370477;54;21092;-74
2022/10/29 04:24:21;;;;;;;7.50;3.58;;;17.00;70.90;;;;;;2304201;55;21905;-74
2022/10/29 04:27:18;;;;;;;9.07;3.30;;;17.00;71.00;;;;;;2485966;54;21108;-74
2022/10/29 04:30:14;;;;;;;8.65;3.85;;;16.90;70.80;;;;;;2539636;54;21021;-76
2022/10/29 04:32:40;;;;;;;7.55;3.47;;;17.00;70.90;;;;;;2537709;54;21644;-75
2022/10/29 04:35:07;;;;;;;6.18;3.28;;;16.90;70.80;;;;;;2300325;55;20949;-77
2022/10/29 04:37:34;;;;;;;5.80;3.00;;;16.90;70.80;;;;;;2526942;54;21034;-74
2022/10/29 04:40:00;;;;;;;8.80;2.72;;;16.80;70.70;;;;;;2289622;55;21497;-74
2022/10/29 04:42:27;;;;;;;4.18;2.40;;;16.80;70.80;;;;;;2304423;56;21049;-76
2022/10/29 04:44:54;;;;;;;8.30;3.12;;;16.80;70.70;;;;;;2334642;54;20949;-74
2022/10/29 04:47:20;;;;;;;6.10;2.78;;;16.80;70.70;;;;;;2302098;56;20957;-74
2022/10/29 04:49:48;;;;;;;6.40;3.33;;;16.80;70.70;;;;;;2287965;55;21871;-74
2022/10/29 04:52:14;;;;;;;7.95;3.28;;;16.80;70.70;;;;;;2486781;54;20983;-75
2022/10/29 04:54:41;;;;;;;9.68;3.92;;;16.70;70.60;;;;;;2288510;55;20971;-75
2022/10/29 04:57:07;;;;;;;9.68;4.20;;;16.70;70.60;;;;;;2330268;54;21481;-74
2022/10/29 04:59:34;;;;;;;8.65;4.40;;;16.60;70.50;;;;;;2304205;56;21025;-76
2022/10/29 05:02:00;;;;;;;10.15;4.22;;;16.60;70.50;;;;;;2370453;55;21009;-74
2022/10/29 05:04:28;;;;;;;8.65;4.47;;;16.60;70.50;;;;;;2279298;55;21073;-73
2022/10/29 05:06:54;;;;;;;6.97;3.53;;;16.60;70.50;;;;;;2284851;55;20957;-74
2022/10/29 05:09:21;;;;;;;8.68;3.08;;;16.50;70.50;;;;;;2524997;54;21000;-74
2022/10/29 05:11:48;;;;;;;6.90;2.97;;;16.50;70.50;;;;;;2502981;54;20953;-76
2022/10/29 05:14:14;;;;;;;4.93;2.83;;;16.50;70.60;;;;;;2283568;55;20948;-75
2022/10/29 05:16:42;;;;;;;6.82;2.92;;;16.50;70.60;;;;;;2523219;54;21017;-74
2022/10/29 05:19:08;;;;;;;5.55;2.80;;;16.50;70.60;;;;;;2442624;54;21049;-75
2022/10/29 05:21:35;;;;;;;9.65;3.55;;;16.40;70.50;;;;;;2350835;54;21441;-74
2022/10/29 05:24:02;;;;;;;6.50;3.15;;;16.40;70.70;;;;;;2297767;56;20937;-74
2022/10/29 05:26:31;;;;;;;6.53;2.78;;;16.40;70.80;;;;;;2415829;54;20946;-74
2022/10/29 05:28:57;;;;;;;4.80;2.50;;;16.30;70.70;;;;;;2294297;55;21960;-75
2022/10/29 05:31:24;;;;;;;7.72;2.50;;;16.40;70.90;;;;;;2419479;54;20937;-74
2022/10/29 05:33:53;;;;;;;5.72;2.87;;;16.30;70.70;;;;;;2296898;55;21021;-76
2022/10/29 05:36:21;;;;;;;5.82;2.75;;;16.30;70.70;;;;;;2528718;54;20977;-76
2022/10/29 05:38:47;;;;;;;4.93;2.22;;;16.30;70.80;;;;;;2298662;56;21005;-73
2022/10/29 05:41:13;;;;;;;4.22;1.80;;;16.30;70.80;;;;;;2531817;54;21416;-74
2022/10/29 05:43:40;;;;;;;5.50;2.45;;;16.30;70.80;;;;;;2296674;56;21880;-74
2022/10/29 05:46:06;;;;;;;5.35;2.40;;;16.30;70.70;;;;;;2293750;54;21010;-76
2022/10/29 05:48:33;;;;;;;8.10;2.45;;;16.20;70.70;;;;;;2279236;55;20958;-75
2022/10/29 05:51:00;;;;;;;4.00;2.12;;;16.20;70.80;;;;;;2363666;54;21878;-75
2022/10/29 05:53:26;;;;;;;5.25;2.42;;;16.20;70.90;;;;;;2289046;55;20975;-74
2022/10/29 05:55:53;;;;;;;5.35;2.03;;;16.20;70.90;;;;;;2311080;55;20964;-75
2022/10/29 05:58:23;;;;;;;4.25;1.90;;;16.20;70.90;;;;;;2270043;55;21809;-74
2022/10/29 06:00:50;;;;;;;5.72;2.28;;;16.20;70.80;;;;;;2316016;54;22429;-75
2022/10/29 06:03:20;;;;;;;4.62;2.35;;;16.10;70.80;;;;;;2282149;55;21018;-74
2022/10/29 06:05:47;;;;;;;5.65;2.00;;;16.10;70.80;;;;;;2290659;55;21490;-75
2022/10/29 06:08:15;;;;;;;6.55;2.25;;;16.10;70.80;;;;;;2282464;55;21901;-75
2022/10/29 06:10:42;;;;;;;8.25;1.75;;;16.10;70.80;;;;;;2394118;54;20941;-75
2022/10/29 06:13:10;;;;;;;4.07;1.83;;;16.00;70.80;;;;;;2295109;56;20969;-75
2022/10/29 06:15:36;;;;;;;5.12;2.03;;;16.00;70.70;;;;;;2340187;54;20972;-77
2022/10/29 06:18:03;;;;;;;5.93;1.80;;;16.00;70.70;;;;;;2274235;55;20994;-75
2022/10/29 06:20:29;;;;;;;4.72;2.20;;;16.00;71.40;;;;;;2537307;54;20929;-76
2022/10/29 06:22:56;;;;;;;8.35;2.40;;;16.00;70.70;;;;;;2534836;54;21029;-76
2022/10/29 06:25:24;;;;;;;6.03;2.30;;;16.00;70.70;;;;;;2294667;56;21010;-76
2022/10/29 06:28:23;;;;;;;5.25;2.20;;;16.00;70.70;;;;;;2505549;55;20943;-75
2022/10/29 06:30:52;;;;;;;5.60;2.60;;;16.00;69.90;;;;;;2299367;54;20954;-73
2022/10/29 06:33:21;;;;;;;4.32;2.10;;;15.90;70.60;;;;;;2297131;55;20981;-75
2022/10/29 06:35:47;;;;;;;5.35;1.90;;;15.90;70.70;;;;;;2298349;56;21013;-76
2022/10/29 06:38:13;;;;;;;4.00;2.08;;;15.90;70.80;;;;;;2385220;54;20929;-74
2022/10/29 06:40:40;;;;;;;8.32;2.55;;;15.90;70.80;;;;;;2294990;55;20969;-74
2022/10/29 06:43:09;;;;;;;4.22;2.30;;;15.80;70.80;;;;;;2279284;55;20962;-76
2022/10/29 06:45:35;;;;;;;5.68;2.30;;;15.90;70.90;;;;;;2290804;55;20941;-75
2022/10/29 06:48:03;;;;;;;4.93;2.10;;;15.80;70.90;;;;;;2290232;56;21797;-74
2022/10/29 06:50:30;;;;;;;6.82;2.25;;;15.80;70.90;;;;;;2288792;56;21482;-74
2022/10/29 06:53:06;;;;;;;5.87;2.35;;;15.80;70.90;;;;;;2287721;56;20961;-74
2022/10/29 06:55:33;;;;;;;8.75;2.53;;;15.80;70.60;;;;;;2288065;56;21446;-75
2022/10/29 06:58:21;;;;;;;6.85;2.47;;;15.80;70.90;;;;;;2289650;56;22052;-74
2022/10/29 07:00:47;;;;;;;8.25;2.75;;;15.80;71.00;;;;;;2268809;55;21168;-75
2022/10/29 07:03:17;;;;;;;5.72;2.80;;;15.80;71.10;;;;;;2297955;54;20973;-74
2022/10/29 07:05:44;;;;;;;3.87;2.22;;;15.80;71.00;;;;;;2270882;56;20925;-76
2022/10/29 07:08:11;;;;;;;5.28;2.70;;;15.80;71.20;;;;;;2273025;56;22298;-74
2022/10/29 07:10:37;;;;;;;6.05;2.85;;;15.80;71.20;;;;;;2273031;56;21410;-75
2022/10/29 07:13:03;;;;;;;6.95;2.55;;;15.80;71.40;;;;;;2258990;55;21039;-75
2022/10/29 07:15:30;;;;;;;7.15;2.75;;;15.80;71.40;;;;;;2267419;55;21020;-75
2022/10/29 07:18:01;;;;;;;5.70;3.20;;;15.70;71.50;;;;;;2267248;55;20999;-75
2022/10/29 07:20:29;;;;;;;5.30;2.78;;;15.80;71.50;;;;;;2275049;54;20941;-75
2022/10/29 07:22:56;;;;;;;6.35;3.05;;;15.80;71.50;;;;;;2280999;55;20925;-74
2022/10/29 07:25:22;;;;;;;6.37;2.58;;;15.80;71.70;;;;;;2283697;55;21044;-75
2022/10/29 07:27:48;;;;;;;5.15;2.70;;;15.80;71.80;;;;;;2393880;53;20945;-77
2022/10/29 07:30:15;;;;;;;4.62;2.25;;;15.90;71.90;;;;;;2272853;55;20965;-74
2022/10/29 07:32:42;;;;;;;6.60;2.83;;;15.90;71.90;;;;;;2261874;54;21013;-74
2022/10/29 07:35:08;;;;;;;5.20;2.80;;;15.90;72.00;;;;;;2259768;56;20995;-74
2022/10/29 07:37:35;;;;;;;6.65;2.95;;;15.90;72.10;;;;;;2244519;56;21020;-76
2022/10/29 07:40:01;;;;;;;9.05;3.62;;;16.00;72.30;;;;;;2252910;56;22406;-74
2022/10/29 07:42:28;;;;;;;5.97;2.92;;;16.00;72.40;;;;;;2253414;56;20997;-74
2022/10/29 07:44:55;;;;;;;5.55;2.55;;;16.00;72.50;;;;;;2253818;56;20945;-75
2022/10/29 07:47:21;;;;;;;6.50;2.60;;;16.10;72.70;;;;;;2247316;55;21397;-75
2022/10/29 07:49:48;;;;;;;6.82;2.70;;;16.20;72.90;;;;;;2241496;55;20949;-75
2022/10/29 07:52:14;;;;;;;5.95;2.55;;;16.20;73.00;;;;;;2251354;55;20955;-75
2022/10/29 07:54:40;;;;;;;4.95;2.62;;;16.20;73.10;;;;;;2304195;55;21648;-75
2022/10/29 07:57:07;;;;;;;5.97;2.30;;;16.30;73.30;;;;;;2303469;55;20973;-77
2022/10/29 07:59:33;;;;;;;4.82;2.10;;;16.30;73.40;;;;;;2306961;55;21476;-74
2022/10/29 08:02:00;;;;;;;5.00;2.08;;;16.40;73.50;;;;;;2279184;54;20945;-76
2022/10/29 08:04:26;;;;;;;5.90;2.67;;;16.50;73.70;;;;;;2344098;54;22260;-74
2022/10/29 08:06:53;;;;;;;6.62;2.60;;;16.50;73.80;;;;;;2251087;55;20937;-76
2022/10/29 08:09:23;;;;;;;8.38;3.30;;;16.60;74.00;;;;;;2277808;55;22589;-75
2022/10/29 08:11:49;;;;;;;5.85;2.80;;;16.70;74.00;;;;;;2261812;56;21037;-76
2022/10/29 08:14:16;;;;;;;5.28;2.70;;;16.80;74.20;;;;;;2360751;54;20997;-75
2022/10/29 08:16:45;;;;;;;6.05;3.17;;;16.80;74.30;;;;;;2285625;56;21928;-75
2022/10/29 08:19:12;;;;;;;6.32;2.50;;;16.90;74.50;;;;;;2345930;54;21144;-77
2022/10/29 08:21:38;;;;;;;6.20;3.00;;;17.00;74.60;;;;;;2292313;56;20973;-76
2022/10/29 08:24:06;;;;;;;6.30;3.03;;;17.00;74.60;;;;;;2282699;55;20934;-75
2022/10/29 08:26:49;;;;;;;5.93;3.00;;;17.10;74.70;;;;;;2282046;55;20941;-77
2022/10/29 08:29:15;;;;;;;8.85;2.80;;;17.20;74.50;;;;;;2529178;54;20979;-78
2022/10/29 08:31:41;;;;;;;7.85;2.92;;;17.30;74.90;;;;;;2291114;55;20949;-76
2022/10/29 08:34:08;;;;;;;5.87;2.78;;;17.30;74.90;;;;;;2302743;56;21005;-75
2022/10/29 08:36:36;;;;;;;6.85;2.87;;;17.40;75.00;;;;;;2369516;53;20993;-76
2022/10/29 08:39:04;;;;;;;6.30;3.17;;;17.50;75.10;;;;;;2307800;56;21442;-77
2022/10/29 08:41:46;;;;;;;4.85;2.67;;;17.60;75.20;;;;;;2299102;55;20998;-75
2022/10/29 08:45:05;;;;;;;10.82;2.90;;;17.70;75.00;;;;;;2300215;55;20973;-75
2022/10/29 08:51:04;;;;;;;6.60;2.62;;;17.80;75.20;;;;;;2486213;54;20972;-77
2022/10/29 08:53:43;;;;;;;5.65;2.37;;;17.90;75.50;;;;;;2310972;56;20941;-78
2022/10/29 08:56:35;;;;;;;7.25;2.50;;;18.10;75.40;;;;;;2309665;55;21789;-76
2022/10/29 08:59:22;;;;;;;5.07;2.50;;;18.20;75.20;;;;;;2294513;55;20939;-77
2022/10/29 09:01:48;;;;;;;7.00;2.28;;;18.30;75.40;;;;;;2308733;56;21222;-76
2022/10/29 09:04:35;;;;;;;5.65;2.58;;;18.30;75.90;;;;;;2309700;56;21036;-75
2022/10/29 09:10:42;;;;;;;6.60;2.78;;;18.50;75.40;;;;;;2439713;54;20988;-76
2022/10/29 09:14:02;;;;;;;6.50;2.20;;;18.70;75.20;;;;;;2307726;55;21499;-76
2022/10/29 09:23:20;;;;;;;8.30;2.25;;;18.80;75.20;;;;;;2303505;56;21404;-76
2022/10/29 09:26:02;;;;;;;4.28;1.60;;;18.90;76.20;;;;;;2290649;55;20950;-78
2022/10/29 09:30:23;;;;;;;6.20;2.60;;;19.30;76.30;;;;;;2335961;54;21925;-78
2022/10/29 09:33:00;;;;;;;4.97;2.10;;;19.50;75.40;;;;;;2310065;55;21038;-76
2022/10/29 09:35:37;;;;;;;5.00;2.37;;;19.60;76.30;;;;;;2519750;54;20949;-76
2022/10/29 09:38:17;;;;;;;6.07;2.62;;;19.70;76.20;;;;;;2434037;54;22084;-75
2022/10/29 09:40:44;;;;;;;6.85;2.78;;;19.80;76.40;;;;;;2544841;53;20964;-76
2022/10/29 09:45:58;;;;;;;4.55;2.47;;;19.90;76.70;;;;;;2382313;54;21936;-75
2022/10/29 09:48:32;;;;;;;5.20;2.33;;;20.10;75.50;;;;;;2308109;55;20989;-78
2022/10/29 09:52:56;;;;;;;5.85;2.75;;;20.20;76.50;;;;;;2546984;54;20953;-71
2022/10/29 09:55:37;;;;;;;9.40;2.95;;;20.40;75.60;;;;;;2308698;56;21552;-71
2022/10/29 09:58:04;;;;;;;5.90;2.33;;;20.50;76.20;;;;;;2546793;54;21463;-71
2022/10/29 10:00:30;;;;;;;9.88;3.20;;;20.60;76.40;;;;;;2307484;55;21395;-71
2022/10/29 10:03:15;;;;;;;5.35;2.30;;;20.60;76.30;;;;;;2308452;56;21813;-73
2022/10/29 10:06:09;;;;;;;4.68;2.10;;;20.80;76.10;;;;;;2307593;55;20938;-75
2022/10/29 10:09:01;;;;;;;4.93;2.40;;;20.90;75.00;;;;;;2309086;56;21042;-71
2022/10/29 10:11:34;;;;;;;8.57;2.42;;;21.00;74.80;;;;;;2280819;54;22015;-71
2022/10/29 10:14:02;;;;;;;7.12;2.85;;;21.10;75.70;;;;;;2273989;56;20954;-72
2022/10/29 10:16:29;;;;;;;6.70;2.40;;;21.10;75.70;;;;;;2529867;54;21811;-72
2022/10/29 10:18:58;;;;;;;7.07;2.47;;;21.20;75.60;;;;;;2295701;54;20954;-71
2022/10/29 10:21:29;;;;;;;7.05;2.72;;;21.30;75.50;;;;;;2286358;54;20974;-72
2022/10/29 10:23:56;;;;;;;5.53;1.87;;;21.40;75.30;;;;;;2302416;54;21005;-72
2022/10/29 10:26:41;;;;;;;4.57;2.00;;;21.50;75.30;;;;;;2305007;54;20940;-72
2022/10/29 10:29:21;;;;;;;6.55;2.37;;;21.60;74.30;;;;;;2477947;54;20960;-71
2022/10/29 10:32:21;;;;;;;4.78;2.00;;;21.60;73.70;;;;;;2287876;55;20994;-72
2022/10/29 10:34:50;;;;;;;8.52;2.70;;;21.70;74.70;;;;;;2297610;55;21041;-75
2022/10/29 10:37:17;;;;;;;6.70;2.45;;;21.80;74.50;;;;;;2282538;55;20950;-71
2022/10/29 10:39:46;;;;;;;7.60;2.42;;;21.90;74.70;;;;;;2521381;54;21392;-72
2022/10/29 10:42:24;;;;;;;5.15;2.37;;;21.90;74.70;;;;;;2521277;54;20976;-75
2022/10/29 10:44:55;;;;;;;4.60;2.12;;;22.00;74.20;;;;;;2287921;55;20970;-72
2022/10/29 10:47:26;;;;;;;4.90;2.22;;;22.10;74.60;;;;;;2287718;55;21054;-72
2022/10/29 10:49:52;;;;;;;4.72;2.37;;;22.10;74.50;;;;;;2521582;54;20942;-71
2022/10/29 10:52:24;;;;;;;5.03;2.35;;;22.20;74.50;;;;;;2287602;54;21002;-72
2022/10/29 10:55:15;;;;;;;8.20;2.92;;;22.30;74.30;;;;;;2287609;55;20954;-71
2022/10/29 10:57:46;;;;;;;4.15;2.35;;;22.40;73.40;;;;;;2282874;54;20947;-73
2022/10/29 11:00:20;;;;;;;5.32;2.15;;;22.40;74.00;;;;;;2283278;54;21059;-73
2022/10/29 11:04:26;;;;;;;4.35;2.08;;;22.50;73.70;;;;;;2514922;54;21130;-71
2022/10/29 11:06:52;;;;;;;4.20;2.30;;;22.60;73.40;;;;;;2283559;55;20958;-72
2022/10/29 11:09:33;;;;;;;4.28;2.17;;;22.70;74.20;;;;;;2282652;55;20973;-72
2022/10/29 11:12:14;;;;;;;4.87;1.90;;;22.70;74.30;;;;;;2281468;55;20951;-71
2022/10/29 11:21:32;;;;;;;5.75;2.20;;;22.80;73.40;;;;;;2282728;56;20922;-73
2022/10/29 11:25:41;;;;;;;4.07;1.60;;;23.10;72.80;;;;;;2513306;54;20931;-75
2022/10/29 11:28:28;;;;;;;6.12;1.65;;;23.10;71.80;;;;;;2282486;55;21824;-72
2022/10/29 11:31:04;;;;;;;23.67;3.33;;;23.20;72.20;;;;;;2281475;56;21021;-71
2022/10/29 11:33:57;;;;;;;7.50;2.70;;;23.30;73.20;;;;;;2281989;56;21770;-74
2022/10/29 11:36:29;;;;;;;5.47;2.30;;;23.30;72.10;;;;;;2476003;54;21026;-72
2022/10/29 11:39:32;;;;;;;5.43;2.22;;;23.40;73.50;;;;;;2280949;56;20946;-73
2022/10/29 11:41:59;;;;;;;6.90;2.45;;;23.50;71.60;;;;;;2515086;54;20945;-72
2022/10/29 11:44:25;;;;;;;6.75;1.95;;;23.60;73.60;;;;;;2282506;56;20927;-71
2022/10/29 11:50:08;;;;;;;4.65;1.95;;;23.60;73.20;;;;;;2281995;55;21517;-72
2022/10/29 11:52:58;;;;;;;4.72;1.80;;;23.80;71.80;;;;;;2284910;55;22385;-71
2022/10/29 11:55:35;;;;;;;5.05;2.08;;;23.90;71.70;;;;;;2262111;56;20942;-72
2022/10/29 11:58:05;;;;;;;4.85;2.28;;;24.00;72.60;;;;;;2281018;55;21288;-72
2022/10/29 12:00:50;;;;;;;4.82;2.10;;;24.00;72.90;;;;;;2282024;55;21502;-76
2022/10/29 12:03:33;;;;;;;5.78;2.20;;;24.10;71.80;;;;;;2410404;54;20981;-72
2022/10/29 12:06:21;;;;;;;4.50;1.90;;;24.20;72.00;;;;;;2281647;56;20906;-71
2022/10/29 12:12:27;;;;;;;4.45;1.73;;;24.20;70.70;;;;;;2281536;56;20954;-74
2022/10/29 12:15:41;;;;;;;4.90;1.92;;;24.40;71.10;;;;;;2281693;56;21776;-72
2022/10/29 12:18:17;;;;;;;5.50;1.98;;;24.50;70.60;;;;;;2514931;53;21748;-75
2022/10/29 12:20:54;;;;;;;4.72;1.90;;;24.60;71.20;;;;;;2280740;55;22154;-71
2022/10/29 12:24:24;;;;;;;4.97;2.08;;;24.60;71.80;;;;;;2282263;55;20955;-71
2022/10/29 12:30:04;;;;;;;5.50;1.80;;;24.70;70.30;;;;;;2281960;56;21117;-72
2022/10/29 12:33:05;;;;;;;6.30;2.10;;;24.80;70.60;;;;;;2282473;56;21437;-72
2022/10/29 12:37:16;;;;;;;4.87;1.70;;;24.90;70.80;;;;;;2283405;56;20947;-72
2022/10/29 12:39:49;;;;;;;5.07;2.17;;;24.90;71.00;;;;;;2451325;55;20983;-71
2022/10/29 12:42:26;;;;;;;6.05;2.30;;;25.00;71.30;;;;;;2282500;56;21769;-72
2022/10/29 12:45:29;;;;;;;4.22;1.75;;;25.00;71.70;;;;;;2515599;55;21716;-73
2022/10/29 12:48:20;;;;;;;4.07;2.10;;;25.10;70.20;;;;;;2281712;56;21047;-72
2022/10/29 12:57:50;;;;;;;5.05;1.83;;;25.20;71.00;;;;;;2306187;55;21006;-71
2022/10/29 13:00:31;;;;;;;3.85;1.50;;;25.20;69.80;;;;;;2282456;56;21034;-72
2022/10/29 13:02:57;;;;;;;6.62;1.58;;;25.40;70.20;;;;;;2282697;55;20984;-72
2022/10/29 13:05:41;;;;;;;4.28;1.70;;;25.40;71.40;;;;;;2265995;56;21041;-72
2022/10/29 13:08:09;;;;;;;5.43;1.90;;;25.40;69.50;;;;;;2514759;54;21853;-72
2022/10/29 13:10:47;;;;;;;5.75;2.03;;;25.40;70.80;;;;;;2282235;56;21602;-72
2022/10/29 13:13:34;;;;;;;5.35;2.45;;;25.40;69.80;;;;;;2514910;54;20990;-72
2022/10/29 13:16:02;;;;;;;6.37;2.15;;;25.50;69.60;;;;;;2349271;55;21054;-72
2022/10/29 13:19:05;;;;;;;3.05;1.52;;;25.50;70.80;;;;;;2347052;54;20972;-72
2022/10/29 13:21:57;;;;;;;6.50;1.77;;;25.50;69.10;;;;;;2514142;54;20928;-74
2022/10/29 13:24:24;;;;;;;4.70;1.80;;;25.50;69.40;;;;;;2515186;54;21015;-75
2022/10/29 13:27:04;;;;;;;4.22;1.90;;;25.50;70.70;;;;;;2282062;56;21707;-76
2022/10/29 13:30:20;;;;;;;7.40;2.37;;;25.60;70.00;;;;;;2281724;55;21915;-76
2022/10/29 13:32:46;;;;;;;4.37;1.75;;;25.70;68.50;;;;;;2282163;55;21035;-73
2022/10/29 13:36:05;;;;;;;6.62;2.20;;;25.60;70.40;;;;;;2515608;55;21747;-72
2022/10/29 13:45:20;;;;;;;6.10;1.87;;;25.70;68.40;;;;;;2507892;55;21011;-73
2022/10/29 13:47:46;;;;;;;2.85;1.40;;;25.80;69.40;;;;;;2321922;55;21025;-72
2022/10/29 13:50:18;;;;;;;3.50;1.48;;;25.80;70.70;;;;;;2515481;55;20929;-72
2022/10/29 13:52:47;;;;;;;4.65;2.08;;;25.80;69.80;;;;;;2300780;54;21088;-73
2022/10/29 13:55:14;;;;;;;7.95;2.05;;;25.80;70.40;;;;;;2334207;55;21411;-73
2022/10/29 13:58:06;;;;;;;8.77;2.12;;;25.90;70.30;;;;;;2464685;54;21809;-75
2022/10/29 14:00:34;;;;;;;4.68;2.15;;;25.90;69.80;;;;;;2308321;56;20925;-75
2022/10/29 14:03:26;;;;;;;4.93;2.10;;;25.90;70.10;;;;;;2378551;54;21009;-73
2022/10/29 14:05:57;;;;;;;4.15;1.95;;;25.90;68.20;;;;;;2293960;55;20953;-75
2022/10/29 14:10:32;;;;;;;5.53;2.33;;;26.00;69.80;;;;;;2304175;55;21071;-74
2022/10/29 14:13:27;;;;;;;3.87;1.65;;;26.00;68.20;;;;;;2305583;55;20974;-73
2022/10/29 14:16:10;;;;;;;3.30;1.70;;;26.10;69.10;;;;;;2283433;55;21085;-75
2022/10/29 14:18:44;;;;;;;5.12;2.20;;;26.10;68.60;;;;;;2305202;55;20937;-76
2022/10/29 14:21:32;;;;;;;6.07;2.12;;;26.10;69.80;;;;;;2537068;54;21030;-70
2022/10/29 14:24:03;;;;;;;4.90;2.17;;;26.10;69.20;;;;;;2289783;55;20966;-75
2022/10/29 14:26:31;;;;;;;5.25;1.90;;;26.10;69.20;;;;;;2533243;54;20964;-72
2022/10/29 14:29:17;;;;;;;4.62;2.15;;;26.10;69.50;;;;;;2539491;54;20985;-72
2022/10/29 14:31:43;;;;;;;6.40;2.15;;;26.20;68.10;;;;;;2294835;55;20961;-74
2022/10/29 14:34:28;;;;;;;5.72;2.33;;;26.20;69.50;;;;;;2388868;54;20956;-72
2022/10/29 14:36:57;;;;;;;6.37;2.37;;;26.20;68.00;;;;;;2357708;53;20999;-72
2022/10/29 14:39:26;;;;;;;5.30;2.42;;;26.20;69.20;;;;;;2536597;54;21737;-76
2022/10/29 14:41:54;;;;;;;4.28;1.87;;;26.20;69.10;;;;;;2385307;54;20961;-72